sensor_id;sensor_type;location;lat;lon;timestamp;P1;durP1;ratioP1;P2;durP2;ratioP2
17854;SDS011;9053;53.358;6.382;2022-09-09T00:01:49;7.45;;;5.68;;
17854;SDS011;9053;53.358;6.382;2022-09-09T00:04:28;6.97;;;6.35;;
17854;SDS011;9053;53.358;6.382;2022-09-09T00:07:01;5.82;;;5.32;;
17854;SDS011;9053;53.358;6.382;2022-09-09T00:09:35;6.78;;;6.03;;
17854;SDS011;9053;53.358;6.382;2022-09-09T00:12:11;6.55;;;5.90;;
17854;SDS011;9053;53.358;6.382;2022-09-09T00:14:47;7.45;;;6.10;;
17854;SDS011;9053;53.358;6.382;2022-09-09T00:17:26;6.70;;;5.43;;
17854;SDS011;9053;53.358;6.382;2022-09-09T00:20:09;6.22;;;5.63;;
17854;SDS011;9053;53.358;6.382;2022-09-09T00:22:44;6.47;;;5.90;;
17854;SDS011;9053;53.358;6.382;2022-09-09T00:25:21;6.07;;;5.57;;
17854;SDS011;9053;53.358;6.382;2022-09-09T00:27:57;6.35;;;5.60;;
17854;SDS011;9053;53.358;6.382;2022-09-09T00:30:29;6.47;;;5.88;;
17854;SDS011;9053;53.358;6.382;2022-09-09T00:33:09;7.93;;;5.80;;
17854;SDS011;9053;53.358;6.382;2022-09-09T00:35:44;8.77;;;6.15;;
17854;SDS011;9053;53.358;6.382;2022-09-09T00:38:18;7.45;;;5.93;;
17854;SDS011;9053;53.358;6.382;2022-09-09T00:40:53;6.35;;;5.75;;
17854;SDS011;9053;53.358;6.382;2022-09-09T00:43:28;6.38;;;5.10;;
17854;SDS011;9053;53.358;6.382;2022-09-09T00:46:10;5.63;;;5.13;;
17854;SDS011;9053;53.358;6.382;2022-09-09T00:48:54;6.03;;;5.43;;
17854;SDS011;9053;53.358;6.382;2022-09-09T00:51:39;6.35;;;5.57;;
17854;SDS011;9053;53.358;6.382;2022-09-09T00:54:23;7.45;;;5.57;;
17854;SDS011;9053;53.358;6.382;2022-09-09T00:57:04;6.00;;;5.07;;
17854;SDS011;9053;53.358;6.382;2022-09-09T00:59:45;6.45;;;5.60;;
17854;SDS011;9053;53.358;6.382;2022-09-09T01:02:21;6.00;;;5.00;;
17854;SDS011;9053;53.358;6.382;2022-09-09T01:04:58;6.03;;;5.45;;
17854;SDS011;9053;53.358;6.382;2022-09-09T01:07:36;8.18;;;5.10;;
17854;SDS011;9053;53.358;6.382;2022-09-09T01:10:07;6.53;;;5.82;;
17854;SDS011;9053;53.358;6.382;2022-09-09T01:12:44;6.55;;;5.82;;
17854;SDS011;9053;53.358;6.382;2022-09-09T01:15:17;6.68;;;5.95;;
17854;SDS011;9053;53.358;6.382;2022-09-09T01:17:53;6.53;;;5.82;;
17854;SDS011;9053;53.358;6.382;2022-09-09T01:20:29;6.07;;;5.43;;
17854;SDS011;9053;53.358;6.382;2022-09-09T01:23:14;6.45;;;5.85;;
17854;SDS011;9053;53.358;6.382;2022-09-09T01:28:54;8.13;;;5.47;;
17854;SDS011;9053;53.358;6.382;2022-09-09T01:31:26;6.47;;;5.40;;
17854;SDS011;9053;53.358;6.382;2022-09-09T01:33:58;7.40;;;5.57;;
17854;SDS011;9053;53.358;6.382;2022-09-09T01:36:29;6.53;;;5.80;;
17854;SDS011;9053;53.358;6.382;2022-09-09T01:39:04;6.50;;;5.65;;
17854;SDS011;9053;53.358;6.382;2022-09-09T01:41:36;6.38;;;5.70;;
17854;SDS011;9053;53.358;6.382;2022-09-09T01:44:07;5.95;;;5.35;;
17854;SDS011;9053;53.358;6.382;2022-09-09T01:46:37;5.55;;;5.05;;
17854;SDS011;9053;53.358;6.382;2022-09-09T01:49:07;6.18;;;5.57;;
17854;SDS011;9053;53.358;6.382;2022-09-09T01:51:39;5.85;;;5.00;;
17854;SDS011;9053;53.358;6.382;2022-09-09T01:54:11;6.05;;;5.45;;
17854;SDS011;9053;53.358;6.382;2022-09-09T01:56:47;7.60;;;5.03;;
17854;SDS011;9053;53.358;6.382;2022-09-09T01:59:45;8.18;;;5.53;;
17854;SDS011;9053;53.358;6.382;2022-09-09T02:02:24;6.10;;;5.50;;
17854;SDS011;9053;53.358;6.382;2022-09-09T02:05:01;6.53;;;5.50;;
17854;SDS011;9053;53.358;6.382;2022-09-09T02:07:39;6.43;;;5.68;;
17854;SDS011;9053;53.358;6.382;2022-09-09T02:10:12;6.65;;;5.93;;
17854;SDS011;9053;53.358;6.382;2022-09-09T02:12:50;5.95;;;5.35;;
17854;SDS011;9053;53.358;6.382;2022-09-09T02:15:26;8.15;;;5.78;;
17854;SDS011;9053;53.358;6.382;2022-09-09T02:18:00;6.00;;;5.40;;
17854;SDS011;9053;53.358;6.382;2022-09-09T02:20:36;8.32;;;5.70;;
17854;SDS011;9053;53.358;6.382;2022-09-09T02:23:07;7.05;;;5.78;;
17854;SDS011;9053;53.358;6.382;2022-09-09T02:25:40;8.02;;;5.85;;
17854;SDS011;9053;53.358;6.382;2022-09-09T02:28:13;5.85;;;5.30;;
17854;SDS011;9053;53.358;6.382;2022-09-09T02:30:46;7.07;;;5.40;;
17854;SDS011;9053;53.358;6.382;2022-09-09T02:33:22;6.00;;;5.25;;
17854;SDS011;9053;53.358;6.382;2022-09-09T02:35:54;7.05;;;5.30;;
17854;SDS011;9053;53.358;6.382;2022-09-09T02:38:30;6.68;;;5.88;;
17854;SDS011;9053;53.358;6.382;2022-09-09T02:41:06;7.57;;;5.90;;
17854;SDS011;9053;53.358;6.382;2022-09-09T02:43:38;6.63;;;5.53;;
17854;SDS011;9053;53.358;6.382;2022-09-09T02:46:09;7.82;;;5.90;;
17854;SDS011;9053;53.358;6.382;2022-09-09T02:48:57;6.25;;;5.63;;
17854;SDS011;9053;53.358;6.382;2022-09-09T02:51:31;6.78;;;5.80;;
17854;SDS011;9053;53.358;6.382;2022-09-09T02:54:10;6.75;;;5.93;;
17854;SDS011;9053;53.358;6.382;2022-09-09T02:56:47;5.95;;;5.32;;
17854;SDS011;9053;53.358;6.382;2022-09-09T02:59:24;6.65;;;5.82;;
17854;SDS011;9053;53.358;6.382;2022-09-09T03:01:55;6.18;;;5.05;;
17854;SDS011;9053;53.358;6.382;2022-09-09T03:04:25;7.25;;;5.97;;
17854;SDS011;9053;53.358;6.382;2022-09-09T03:06:55;6.15;;;5.55;;
17854;SDS011;9053;53.358;6.382;2022-09-09T03:09:25;6.82;;;5.70;;
17854;SDS011;9053;53.358;6.382;2022-09-09T03:11:55;6.00;;;5.50;;
17854;SDS011;9053;53.358;6.382;2022-09-09T03:14:27;6.82;;;6.10;;
17854;SDS011;9053;53.358;6.382;2022-09-09T03:16:57;8.40;;;5.65;;
17854;SDS011;9053;53.358;6.382;2022-09-09T03:19:28;9.55;;;6.97;;
17854;SDS011;9053;53.358;6.382;2022-09-09T03:21:59;6.65;;;5.97;;
17854;SDS011;9053;53.358;6.382;2022-09-09T03:24:30;7.68;;;6.88;;
17854;SDS011;9053;53.358;6.382;2022-09-09T03:27:00;9.25;;;6.40;;
17854;SDS011;9053;53.358;6.382;2022-09-09T03:29:32;7.78;;;6.40;;
17854;SDS011;9053;53.358;6.382;2022-09-09T03:32:02;6.63;;;6.03;;
17854;SDS011;9053;53.358;6.382;2022-09-09T03:34:32;8.52;;;6.72;;
17854;SDS011;9053;53.358;6.382;2022-09-09T03:37:03;7.30;;;6.32;;
17854;SDS011;9053;53.358;6.382;2022-09-09T03:39:33;9.77;;;6.95;;
17854;SDS011;9053;53.358;6.382;2022-09-09T03:42:03;8.20;;;7.05;;
17854;SDS011;9053;53.358;6.382;2022-09-09T03:44:35;7.43;;;6.55;;
17854;SDS011;9053;53.358;6.382;2022-09-09T03:47:09;6.85;;;6.03;;
17854;SDS011;9053;53.358;6.382;2022-09-09T03:49:39;7.85;;;6.70;;
17854;SDS011;9053;53.358;6.382;2022-09-09T03:52:09;7.90;;;7.07;;
17854;SDS011;9053;53.358;6.382;2022-09-09T03:54:39;8.32;;;6.50;;
17854;SDS011;9053;53.358;6.382;2022-09-09T03:57:09;6.68;;;5.97;;
17854;SDS011;9053;53.358;6.382;2022-09-09T03:59:42;8.75;;;6.43;;
17854;SDS011;9053;53.358;6.382;2022-09-09T04:02:12;7.95;;;6.70;;
17854;SDS011;9053;53.358;6.382;2022-09-09T04:04:42;8.73;;;6.63;;
17854;SDS011;9053;53.358;6.382;2022-09-09T04:07:12;7.47;;;6.68;;
17854;SDS011;9053;53.358;6.382;2022-09-09T04:09:42;8.70;;;6.50;;
17854;SDS011;9053;53.358;6.382;2022-09-09T04:12:12;7.68;;;6.50;;
17854;SDS011;9053;53.358;6.382;2022-09-09T04:14:45;8.70;;;6.18;;
17854;SDS011;9053;53.358;6.382;2022-09-09T04:17:15;8.63;;;7.10;;
17854;SDS011;9053;53.358;6.382;2022-09-09T04:19:45;8.00;;;7.00;;
17854;SDS011;9053;53.358;6.382;2022-09-09T04:22:14;8.30;;;6.57;;
17854;SDS011;9053;53.358;6.382;2022-09-09T04:24:44;8.20;;;6.43;;
17854;SDS011;9053;53.358;6.382;2022-09-09T04:27:14;8.70;;;6.68;;
17854;SDS011;9053;53.358;6.382;2022-09-09T04:29:46;7.55;;;6.40;;
17854;SDS011;9053;53.358;6.382;2022-09-09T04:32:16;8.50;;;6.47;;
17854;SDS011;9053;53.358;6.382;2022-09-09T04:34:46;8.00;;;6.68;;
17854;SDS011;9053;53.358;6.382;2022-09-09T04:37:15;6.88;;;5.68;;
17854;SDS011;9053;53.358;6.382;2022-09-09T04:39:45;6.80;;;5.82;;
17854;SDS011;9053;53.358;6.382;2022-09-09T04:42:15;7.00;;;6.30;;
17854;SDS011;9053;53.358;6.382;2022-09-09T04:44:48;8.02;;;6.80;;
17854;SDS011;9053;53.358;6.382;2022-09-09T04:47:18;6.72;;;5.75;;
17854;SDS011;9053;53.358;6.382;2022-09-09T04:49:48;7.28;;;5.80;;
17854;SDS011;9053;53.358;6.382;2022-09-09T04:52:18;6.68;;;5.97;;
17854;SDS011;9053;53.358;6.382;2022-09-09T04:54:48;8.10;;;6.18;;
17854;SDS011;9053;53.358;6.382;2022-09-09T04:57:18;6.72;;;5.78;;
17854;SDS011;9053;53.358;6.382;2022-09-09T04:59:51;7.10;;;5.88;;
17854;SDS011;9053;53.358;6.382;2022-09-09T05:02:20;5.88;;;4.97;;
17854;SDS011;9053;53.358;6.382;2022-09-09T05:04:56;6.25;;;5.22;;
17854;SDS011;9053;53.358;6.382;2022-09-09T05:07:26;5.55;;;4.95;;
17854;SDS011;9053;53.358;6.382;2022-09-09T05:09:57;6.00;;;5.40;;
17854;SDS011;9053;53.358;6.382;2022-09-09T05:12:27;6.13;;;4.72;;
17854;SDS011;9053;53.358;6.382;2022-09-09T05:15:00;6.55;;;5.18;;
17854;SDS011;9053;53.358;6.382;2022-09-09T05:17:30;5.88;;;4.80;;
17854;SDS011;9053;53.358;6.382;2022-09-09T05:20:00;5.97;;;5.35;;
17854;SDS011;9053;53.358;6.382;2022-09-09T05:22:36;6.03;;;4.95;;
17854;SDS011;9053;53.358;6.382;2022-09-09T05:25:07;7.47;;;5.05;;
17854;SDS011;9053;53.358;6.382;2022-09-09T05:27:37;5.22;;;4.35;;
17854;SDS011;9053;53.358;6.382;2022-09-09T05:30:11;5.47;;;4.72;;
17854;SDS011;9053;53.358;6.382;2022-09-09T05:32:41;5.60;;;4.88;;
17854;SDS011;9053;53.358;6.382;2022-09-09T05:35:10;8.38;;;5.20;;
17854;SDS011;9053;53.358;6.382;2022-09-09T05:37:40;6.50;;;4.95;;
17854;SDS011;9053;53.358;6.382;2022-09-09T05:40:10;6.05;;;4.70;;
17854;SDS011;9053;53.358;6.382;2022-09-09T05:42:40;6.43;;;5.18;;
17854;SDS011;9053;53.358;6.382;2022-09-09T05:45:12;6.00;;;5.40;;
17854;SDS011;9053;53.358;6.382;2022-09-09T05:47:42;6.25;;;4.68;;
17854;SDS011;9053;53.358;6.382;2022-09-09T05:50:12;7.03;;;5.03;;
17854;SDS011;9053;53.358;6.382;2022-09-09T05:52:42;7.10;;;5.20;;
17854;SDS011;9053;53.358;6.382;2022-09-09T05:55:12;6.28;;;5.28;;
17854;SDS011;9053;53.358;6.382;2022-09-09T05:57:42;5.95;;;5.03;;
17854;SDS011;9053;53.358;6.382;2022-09-09T06:00:20;7.43;;;5.30;;
17854;SDS011;9053;53.358;6.382;2022-09-09T06:02:51;7.32;;;5.65;;
17854;SDS011;9053;53.358;6.382;2022-09-09T06:05:21;5.75;;;4.63;;
17854;SDS011;9053;53.358;6.382;2022-09-09T06:07:54;6.50;;;4.95;;
17854;SDS011;9053;53.358;6.382;2022-09-09T06:10:24;7.70;;;5.47;;
17854;SDS011;9053;53.358;6.382;2022-09-09T06:12:54;6.97;;;5.63;;
17854;SDS011;9053;53.358;6.382;2022-09-09T06:15:26;8.07;;;5.63;;
17854;SDS011;9053;53.358;6.382;2022-09-09T06:17:57;7.70;;;5.63;;
17854;SDS011;9053;53.358;6.382;2022-09-09T06:20:26;6.25;;;5.25;;
17854;SDS011;9053;53.358;6.382;2022-09-09T06:22:57;6.20;;;5.13;;
17854;SDS011;9053;53.358;6.382;2022-09-09T06:25:27;7.57;;;5.57;;
17854;SDS011;9053;53.358;6.382;2022-09-09T06:27:57;6.05;;;5.43;;
17854;SDS011;9053;53.358;6.382;2022-09-09T06:30:29;8.27;;;5.57;;
17854;SDS011;9053;53.358;6.382;2022-09-09T06:32:59;8.15;;;6.30;;
17854;SDS011;9053;53.358;6.382;2022-09-09T06:35:28;6.70;;;5.93;;
17854;SDS011;9053;53.358;6.382;2022-09-09T06:37:58;8.25;;;6.07;;
17854;SDS011;9053;53.358;6.382;2022-09-09T06:40:28;8.07;;;6.22;;
17854;SDS011;9053;53.358;6.382;2022-09-09T06:42:59;8.32;;;7.20;;
17854;SDS011;9053;53.358;6.382;2022-09-09T06:45:32;7.47;;;6.03;;
17854;SDS011;9053;53.358;6.382;2022-09-09T06:48:03;7.55;;;6.22;;
17854;SDS011;9053;53.358;6.382;2022-09-09T06:50:32;8.52;;;7.50;;
17854;SDS011;9053;53.358;6.382;2022-09-09T06:53:02;9.27;;;7.00;;
17854;SDS011;9053;53.358;6.382;2022-09-09T06:55:32;8.38;;;6.53;;
17854;SDS011;9053;53.358;6.382;2022-09-09T06:58:02;8.13;;;6.45;;
17854;SDS011;9053;53.358;6.382;2022-09-09T07:00:34;8.77;;;7.15;;
17854;SDS011;9053;53.358;6.382;2022-09-09T07:03:05;8.52;;;7.28;;
17854;SDS011;9053;53.358;6.382;2022-09-09T07:05:34;7.78;;;6.18;;
17854;SDS011;9053;53.358;6.382;2022-09-09T07:08:04;7.68;;;5.55;;
17854;SDS011;9053;53.358;6.382;2022-09-09T07:10:35;8.57;;;6.72;;
17854;SDS011;9053;53.358;6.382;2022-09-09T07:13:04;7.70;;;6.47;;
17854;SDS011;9053;53.358;6.382;2022-09-09T07:15:37;8.23;;;6.25;;
17854;SDS011;9053;53.358;6.382;2022-09-09T07:18:07;7.80;;;4.75;;
17854;SDS011;9053;53.358;6.382;2022-09-09T07:20:36;5.47;;;4.57;;
17854;SDS011;9053;53.358;6.382;2022-09-09T07:23:06;8.52;;;5.60;;
17854;SDS011;9053;53.358;6.382;2022-09-09T07:25:36;7.38;;;5.30;;
17854;SDS011;9053;53.358;6.382;2022-09-09T07:28:06;7.82;;;5.85;;
17854;SDS011;9053;53.358;6.382;2022-09-09T07:30:38;9.10;;;6.03;;
17854;SDS011;9053;53.358;6.382;2022-09-09T07:33:09;7.28;;;6.20;;
17854;SDS011;9053;53.358;6.382;2022-09-09T07:35:39;6.40;;;5.40;;
17854;SDS011;9053;53.358;6.382;2022-09-09T07:38:09;7.45;;;6.32;;
17854;SDS011;9053;53.358;6.382;2022-09-09T07:40:38;9.68;;;6.63;;
17854;SDS011;9053;53.358;6.382;2022-09-09T07:43:08;8.20;;;6.03;;
17854;SDS011;9053;53.358;6.382;2022-09-09T07:45:45;6.28;;;5.00;;
17854;SDS011;9053;53.358;6.382;2022-09-09T07:48:16;5.82;;;5.22;;
17854;SDS011;9053;53.358;6.382;2022-09-09T07:50:46;6.88;;;5.20;;
17854;SDS011;9053;53.358;6.382;2022-09-09T07:53:15;8.50;;;6.35;;
17854;SDS011;9053;53.358;6.382;2022-09-09T07:55:46;7.57;;;5.60;;
17854;SDS011;9053;53.358;6.382;2022-09-09T07:58:16;7.20;;;6.18;;
17854;SDS011;9053;53.358;6.382;2022-09-09T08:00:48;6.18;;;5.25;;
17854;SDS011;9053;53.358;6.382;2022-09-09T08:03:20;6.50;;;5.38;;
17854;SDS011;9053;53.358;6.382;2022-09-09T08:05:50;7.10;;;5.40;;
17854;SDS011;9053;53.358;6.382;2022-09-09T08:08:20;5.55;;;4.82;;
17854;SDS011;9053;53.358;6.382;2022-09-09T08:10:49;6.90;;;5.75;;
17854;SDS011;9053;53.358;6.382;2022-09-09T08:13:19;6.28;;;5.30;;
17854;SDS011;9053;53.358;6.382;2022-09-09T08:15:52;6.72;;;5.47;;
17854;SDS011;9053;53.358;6.382;2022-09-09T08:18:22;5.97;;;5.18;;
17854;SDS011;9053;53.358;6.382;2022-09-09T08:20:51;6.28;;;5.10;;
17854;SDS011;9053;53.358;6.382;2022-09-09T08:23:21;4.45;;;3.90;;
17854;SDS011;9053;53.358;6.382;2022-09-09T08:25:52;6.00;;;4.75;;
17854;SDS011;9053;53.358;6.382;2022-09-09T08:28:22;6.55;;;5.10;;
17854;SDS011;9053;53.358;6.382;2022-09-09T08:30:54;5.20;;;4.50;;
17854;SDS011;9053;53.358;6.382;2022-09-09T08:33:24;8.43;;;5.65;;
17854;SDS011;9053;53.358;6.382;2022-09-09T08:35:54;4.82;;;4.40;;
17854;SDS011;9053;53.358;6.382;2022-09-09T08:38:23;5.28;;;4.38;;
17854;SDS011;9053;53.358;6.382;2022-09-09T08:40:56;5.55;;;4.45;;
17854;SDS011;9053;53.358;6.382;2022-09-09T08:43:36;5.45;;;4.43;;
17854;SDS011;9053;53.358;6.382;2022-09-09T08:46:09;7.47;;;4.85;;
17854;SDS011;9053;53.358;6.382;2022-09-09T08:48:47;6.72;;;4.28;;
17854;SDS011;9053;53.358;6.382;2022-09-09T08:51:23;3.78;;;3.47;;
17854;SDS011;9053;53.358;6.382;2022-09-09T08:53:57;5.68;;;3.85;;
17854;SDS011;9053;53.358;6.382;2022-09-09T08:56:28;4.75;;;3.58;;
17854;SDS011;9053;53.358;6.382;2022-09-09T08:59:02;6.22;;;4.43;;
17854;SDS011;9053;53.358;6.382;2022-09-09T09:01:41;5.53;;;4.28;;
17854;SDS011;9053;53.358;6.382;2022-09-09T09:04:22;5.07;;;3.90;;
17854;SDS011;9053;53.358;6.382;2022-09-09T09:07:06;10.10;;;4.60;;
17854;SDS011;9053;53.358;6.382;2022-09-09T09:09:50;5.38;;;3.83;;
17854;SDS011;9053;53.358;6.382;2022-09-09T09:12:27;6.07;;;3.90;;
17854;SDS011;9053;53.358;6.382;2022-09-09T09:14:59;5.95;;;3.75;;
17854;SDS011;9053;53.358;6.382;2022-09-09T09:17:31;5.90;;;3.90;;
17854;SDS011;9053;53.358;6.382;2022-09-09T09:20:05;5.65;;;3.70;;
17854;SDS011;9053;53.358;6.382;2022-09-09T09:22:44;6.65;;;4.15;;
17854;SDS011;9053;53.358;6.382;2022-09-09T09:25:18;6.65;;;4.18;;
17854;SDS011;9053;53.358;6.382;2022-09-09T09:27:51;5.35;;;3.70;;
17854;SDS011;9053;53.358;6.382;2022-09-09T09:30:28;5.18;;;3.92;;
17854;SDS011;9053;53.358;6.382;2022-09-09T09:33:08;8.68;;;4.05;;
17854;SDS011;9053;53.358;6.382;2022-09-09T09:35:48;7.20;;;5.28;;
17854;SDS011;9053;53.358;6.382;2022-09-09T09:38:18;4.80;;;4.28;;
17854;SDS011;9053;53.358;6.382;2022-09-09T09:41:09;5.15;;;4.18;;
17854;SDS011;9053;53.358;6.382;2022-09-09T09:43:40;7.70;;;4.55;;
17854;SDS011;9053;53.358;6.382;2022-09-09T09:46:18;3.83;;;3.10;;
17854;SDS011;9053;53.358;6.382;2022-09-09T09:48:58;5.28;;;3.88;;
17854;SDS011;9053;53.358;6.382;2022-09-09T09:51:30;6.55;;;4.40;;
17854;SDS011;9053;53.358;6.382;2022-09-09T09:56:54;6.95;;;3.72;;
17854;SDS011;9053;53.358;6.382;2022-09-09T09:59:32;5.28;;;3.42;;
17854;SDS011;9053;53.358;6.382;2022-09-09T10:02:12;5.40;;;3.60;;
17854;SDS011;9053;53.358;6.382;2022-09-09T10:04:46;5.03;;;3.80;;
17854;SDS011;9053;53.358;6.382;2022-09-09T10:07:17;6.63;;;3.75;;
17854;SDS011;9053;53.358;6.382;2022-09-09T10:09:50;6.10;;;3.53;;
17854;SDS011;9053;53.358;6.382;2022-09-09T10:12:25;3.78;;;3.00;;
17854;SDS011;9053;53.358;6.382;2022-09-09T10:15:07;6.88;;;3.58;;
17854;SDS011;9053;53.358;6.382;2022-09-09T10:17:54;6.95;;;3.00;;
17854;SDS011;9053;53.358;6.382;2022-09-09T10:20:35;6.07;;;2.95;;
17854;SDS011;9053;53.358;6.382;2022-09-09T10:23:16;5.75;;;2.78;;
17854;SDS011;9053;53.358;6.382;2022-09-09T10:26:03;8.90;;;3.22;;
17854;SDS011;9053;53.358;6.382;2022-09-09T10:28:54;6.45;;;2.80;;
17854;SDS011;9053;53.358;6.382;2022-09-09T10:31:38;7.82;;;2.70;;
17854;SDS011;9053;53.358;6.382;2022-09-09T10:34:24;6.57;;;3.00;;
17854;SDS011;9053;53.358;6.382;2022-09-09T10:37:18;5.93;;;2.35;;
17854;SDS011;9053;53.358;6.382;2022-09-09T10:40:12;4.68;;;2.38;;
17854;SDS011;9053;53.358;6.382;2022-09-09T10:42:51;4.72;;;1.85;;
17854;SDS011;9053;53.358;6.382;2022-09-09T10:45:26;4.00;;;1.85;;
17854;SDS011;9053;53.358;6.382;2022-09-09T10:48:07;6.43;;;1.90;;
17854;SDS011;9053;53.358;6.382;2022-09-09T10:50:53;5.63;;;2.40;;
17854;SDS011;9053;53.358;6.382;2022-09-09T10:53:41;6.63;;;2.30;;
17854;SDS011;9053;53.358;6.382;2022-09-09T10:56:21;5.32;;;2.45;;
17854;SDS011;9053;53.358;6.382;2022-09-09T10:58:53;4.75;;;2.22;;
17854;SDS011;9053;53.358;6.382;2022-09-09T11:01:29;8.63;;;2.78;;
17854;SDS011;9053;53.358;6.382;2022-09-09T11:04:05;7.68;;;2.60;;
17854;SDS011;9053;53.358;6.382;2022-09-09T11:06:47;5.15;;;2.45;;
17854;SDS011;9053;53.358;6.382;2022-09-09T11:09:24;5.85;;;2.30;;
17854;SDS011;9053;53.358;6.382;2022-09-09T11:11:58;6.60;;;2.45;;
17854;SDS011;9053;53.358;6.382;2022-09-09T11:14:31;3.78;;;2.25;;
17854;SDS011;9053;53.358;6.382;2022-09-09T11:17:06;6.47;;;2.38;;
17854;SDS011;9053;53.358;6.382;2022-09-09T11:19:41;4.75;;;2.10;;
17854;SDS011;9053;53.358;6.382;2022-09-09T11:22:16;3.47;;;1.80;;
17854;SDS011;9053;53.358;6.382;2022-09-09T11:24:59;4.50;;;1.90;;
17854;SDS011;9053;53.358;6.382;2022-09-09T11:27:36;4.78;;;2.00;;
17854;SDS011;9053;53.358;6.382;2022-09-09T11:30:17;2.92;;;1.80;;
17854;SDS011;9053;53.358;6.382;2022-09-09T11:33:15;3.65;;;1.98;;
17854;SDS011;9053;53.358;6.382;2022-09-09T11:36:11;2.70;;;1.70;;
17854;SDS011;9053;53.358;6.382;2022-09-09T11:38:54;5.32;;;1.67;;
17854;SDS011;9053;53.358;6.382;2022-09-09T11:41:35;2.13;;;1.50;;
17854;SDS011;9053;53.358;6.382;2022-09-09T11:44:09;5.47;;;2.00;;
17854;SDS011;9053;53.358;6.382;2022-09-09T11:46:42;3.25;;;1.60;;
17854;SDS011;9053;53.358;6.382;2022-09-09T11:49:25;4.65;;;2.30;;
17854;SDS011;9053;53.358;6.382;2022-09-09T11:51:57;3.30;;;1.58;;
17854;SDS011;9053;53.358;6.382;2022-09-09T11:54:28;5.68;;;1.80;;
17854;SDS011;9053;53.358;6.382;2022-09-09T11:57:02;3.47;;;1.63;;
17854;SDS011;9053;53.358;6.382;2022-09-09T11:59:55;3.08;;;1.63;;
17854;SDS011;9053;53.358;6.382;2022-09-09T12:02:27;3.72;;;1.58;;
17854;SDS011;9053;53.358;6.382;2022-09-09T12:04:59;3.17;;;1.42;;
17854;SDS011;9053;53.358;6.382;2022-09-09T12:07:33;4.13;;;1.70;;
17854;SDS011;9053;53.358;6.382;2022-09-09T12:10:19;4.93;;;1.75;;
17854;SDS011;9053;53.358;6.382;2022-09-09T12:12:53;2.72;;;1.50;;
17854;SDS011;9053;53.358;6.382;2022-09-09T12:15:27;5.15;;;1.95;;
17854;SDS011;9053;53.358;6.382;2022-09-09T12:17:58;2.78;;;1.58;;
17854;SDS011;9053;53.358;6.382;2022-09-09T12:20:33;4.53;;;1.60;;
17854;SDS011;9053;53.358;6.382;2022-09-09T12:23:16;4.50;;;2.00;;
17854;SDS011;9053;53.358;6.382;2022-09-09T12:26:03;5.28;;;2.08;;
17854;SDS011;9053;53.358;6.382;2022-09-09T12:28:42;4.22;;;1.75;;
17854;SDS011;9053;53.358;6.382;2022-09-09T12:31:23;3.63;;;2.10;;
17854;SDS011;9053;53.358;6.382;2022-09-09T12:34:02;4.97;;;1.80;;
17854;SDS011;9053;53.358;6.382;2022-09-09T12:36:38;2.92;;;1.65;;
17854;SDS011;9053;53.358;6.382;2022-09-09T12:39:18;7.72;;;1.92;;
17854;SDS011;9053;53.358;6.382;2022-09-09T12:41:58;4.80;;;1.73;;
17854;SDS011;9053;53.358;6.382;2022-09-09T12:44:30;4.13;;;1.83;;
17854;SDS011;9053;53.358;6.382;2022-09-09T12:47:04;3.40;;;1.60;;
17854;SDS011;9053;53.358;6.382;2022-09-09T12:49:35;3.90;;;1.95;;
17854;SDS011;9053;53.358;6.382;2022-09-09T12:52:09;2.55;;;1.80;;
17854;SDS011;9053;53.358;6.382;2022-09-09T12:54:46;3.35;;;1.60;;
17854;SDS011;9053;53.358;6.382;2022-09-09T12:57:17;4.70;;;1.85;;
17854;SDS011;9053;53.358;6.382;2022-09-09T12:59:47;3.33;;;1.58;;
17854;SDS011;9053;53.358;6.382;2022-09-09T13:02:21;4.00;;;1.75;;
17854;SDS011;9053;53.358;6.382;2022-09-09T13:04:52;5.75;;;1.95;;
17854;SDS011;9053;53.358;6.382;2022-09-09T13:07:22;8.35;;;2.15;;
17854;SDS011;9053;53.358;6.382;2022-09-09T13:09:52;4.38;;;1.80;;
17854;SDS011;9053;53.358;6.382;2022-09-09T13:12:22;2.60;;;1.58;;
17854;SDS011;9053;53.358;6.382;2022-09-09T13:14:53;3.20;;;1.58;;
17854;SDS011;9053;53.358;6.382;2022-09-09T13:17:27;4.25;;;1.90;;
17854;SDS011;9053;53.358;6.382;2022-09-09T13:19:57;4.53;;;1.70;;
17854;SDS011;9053;53.358;6.382;2022-09-09T13:22:29;3.33;;;1.60;;
17854;SDS011;9053;53.358;6.382;2022-09-09T13:25:04;4.53;;;2.05;;
17854;SDS011;9053;53.358;6.382;2022-09-09T13:27:38;4.72;;;1.90;;
17854;SDS011;9053;53.358;6.382;2022-09-09T13:30:22;3.47;;;1.50;;
17854;SDS011;9053;53.358;6.382;2022-09-09T13:35:53;2.90;;;1.30;;
17854;SDS011;9053;53.358;6.382;2022-09-09T13:38:25;2.70;;;1.23;;
17854;SDS011;9053;53.358;6.382;2022-09-09T13:40:57;2.55;;;1.40;;
17854;SDS011;9053;53.358;6.382;2022-09-09T13:43:31;2.20;;;1.30;;
17854;SDS011;9053;53.358;6.382;2022-09-09T13:46:04;3.55;;;1.60;;
17854;SDS011;9053;53.358;6.382;2022-09-09T13:48:57;2.40;;;1.48;;
17854;SDS011;9053;53.358;6.382;2022-09-09T13:51:38;3.28;;;1.17;;
17854;SDS011;9053;53.358;6.382;2022-09-09T13:54:11;2.17;;;1.20;;
17854;SDS011;9053;53.358;6.382;2022-09-09T13:56:43;2.40;;;1.40;;
17854;SDS011;9053;53.358;6.382;2022-09-09T13:59:14;3.60;;;1.50;;
17854;SDS011;9053;53.358;6.382;2022-09-09T14:01:46;3.42;;;1.30;;
17854;SDS011;9053;53.358;6.382;2022-09-09T14:04:18;5.07;;;2.28;;
17854;SDS011;9053;53.358;6.382;2022-09-09T14:06:48;3.58;;;1.40;;
17854;SDS011;9053;53.358;6.382;2022-09-09T14:09:18;2.50;;;2.15;;
17854;SDS011;9053;53.358;6.382;2022-09-09T14:11:48;4.82;;;1.58;;
17854;SDS011;9053;53.358;6.382;2022-09-09T14:14:18;5.82;;;1.80;;
17854;SDS011;9053;53.358;6.382;2022-09-09T14:16:48;3.88;;;1.45;;
17854;SDS011;9053;53.358;6.382;2022-09-09T14:19:20;2.50;;;1.58;;
17854;SDS011;9053;53.358;6.382;2022-09-09T14:21:50;3.35;;;1.55;;
17854;SDS011;9053;53.358;6.382;2022-09-09T14:24:19;3.88;;;1.65;;
17854;SDS011;9053;53.358;6.382;2022-09-09T14:26:49;4.57;;;1.80;;
17854;SDS011;9053;53.358;6.382;2022-09-09T14:29:19;4.28;;;1.80;;
17854;SDS011;9053;53.358;6.382;2022-09-09T14:31:49;4.13;;;1.70;;
17854;SDS011;9053;53.358;6.382;2022-09-09T14:34:21;3.13;;;1.73;;
17854;SDS011;9053;53.358;6.382;2022-09-09T14:36:51;3.28;;;1.70;;
17854;SDS011;9053;53.358;6.382;2022-09-09T14:39:20;3.67;;;1.65;;
17854;SDS011;9053;53.358;6.382;2022-09-09T14:41:50;3.22;;;1.60;;
17854;SDS011;9053;53.358;6.382;2022-09-09T14:44:20;2.15;;;1.40;;
17854;SDS011;9053;53.358;6.382;2022-09-09T14:46:50;2.70;;;1.30;;
17854;SDS011;9053;53.358;6.382;2022-09-09T14:49:23;3.13;;;1.65;;
17854;SDS011;9053;53.358;6.382;2022-09-09T14:51:52;4.40;;;1.90;;
17854;SDS011;9053;53.358;6.382;2022-09-09T14:54:22;4.03;;;1.60;;
17854;SDS011;9053;53.358;6.382;2022-09-09T14:56:52;2.28;;;1.20;;
17854;SDS011;9053;53.358;6.382;2022-09-09T14:59:23;1.98;;;1.10;;
17854;SDS011;9053;53.358;6.382;2022-09-09T15:01:53;2.78;;;1.23;;
17854;SDS011;9053;53.358;6.382;2022-09-09T15:04:25;2.33;;;1.40;;
17854;SDS011;9053;53.358;6.382;2022-09-09T15:06:55;1.77;;;1.25;;
17854;SDS011;9053;53.358;6.382;2022-09-09T15:09:25;2.15;;;1.15;;
17854;SDS011;9053;53.358;6.382;2022-09-09T15:11:55;1.27;;;0.90;;
17854;SDS011;9053;53.358;6.382;2022-09-09T15:14:25;1.95;;;1.00;;
17854;SDS011;9053;53.358;6.382;2022-09-09T15:16:55;2.72;;;1.13;;
17854;SDS011;9053;53.358;6.382;2022-09-09T15:19:27;2.03;;;0.98;;
17854;SDS011;9053;53.358;6.382;2022-09-09T15:21:58;1.38;;;0.90;;
17854;SDS011;9053;53.358;6.382;2022-09-09T15:24:28;1.63;;;0.90;;
17854;SDS011;9053;53.358;6.382;2022-09-09T15:26:58;1.98;;;1.05;;
17854;SDS011;9053;53.358;6.382;2022-09-09T15:29:28;0.85;;;0.82;;
17854;SDS011;9053;53.358;6.382;2022-09-09T15:31:58;1.45;;;0.80;;
17854;SDS011;9053;53.358;6.382;2022-09-09T15:34:30;1.67;;;1.05;;
17854;SDS011;9053;53.358;6.382;2022-09-09T15:37:00;1.75;;;1.10;;
17854;SDS011;9053;53.358;6.382;2022-09-09T15:39:29;2.08;;;1.33;;
17854;SDS011;9053;53.358;6.382;2022-09-09T15:42:04;5.15;;;1.13;;
17854;SDS011;9053;53.358;6.382;2022-09-09T15:44:40;2.17;;;1.13;;
17854;SDS011;9053;53.358;6.382;2022-09-09T15:47:11;2.33;;;1.55;;
17854;SDS011;9053;53.358;6.382;2022-09-09T15:49:45;2.22;;;1.17;;